Urbana, Illinois
Current Conditions -  °F | °C
As of 12:53 AM on Monday 22 Dec 2014 (Local Time) from KCMI Reporting Station
Haze Haze  
Wind Chill: 21°   Ceiling: 7500
Heat Index: 30°   Visibility: 5mi
Dew Point: 27°   Wind: 12mph
Humidity: 88%   Direction: 110°ESE
Pressure: 29.97"   Gusts: NA
Location:  40.12°N, 88.2°W
Report Text: KCMI 220653Z AUTO 11010KT 5SM BR SCT050 BKN075 OVC100 M01/M03 A2997 RMK AO2 SLP157 T10111028
Loading
Personal Weather Stations






























Interactive Weather Map New forecast layout! Learn more

10-Day Weather Forecast

Advertisements
Track Severe Weather on mobile